sensor_id;sensor_type;location;lat;lon;timestamp;P1;durP1;ratioP1;P2;durP2;ratioP2
66272;SDS011;58450;52.150;4.466;2023-08-24T00:01:12;3.55;;;1.80;;
66272;SDS011;58450;52.150;4.466;2023-08-24T00:03:41;4.53;;;1.80;;
66272;SDS011;58450;52.150;4.466;2023-08-24T00:06:08;3.78;;;1.70;;
66272;SDS011;58450;52.150;4.466;2023-08-24T00:08:36;3.45;;;1.70;;
66272;SDS011;58450;52.150;4.466;2023-08-24T00:11:04;3.13;;;1.88;;
66272;SDS011;58450;52.150;4.466;2023-08-24T00:13:34;4.78;;;2.10;;
66272;SDS011;58450;52.150;4.466;2023-08-24T00:16:02;3.33;;;1.95;;
66272;SDS011;58450;52.150;4.466;2023-08-24T00:18:30;3.35;;;1.80;;
66272;SDS011;58450;52.150;4.466;2023-08-24T00:20:58;3.90;;;2.00;;
66272;SDS011;58450;52.150;4.466;2023-08-24T00:23:26;4.22;;;2.10;;
66272;SDS011;58450;52.150;4.466;2023-08-24T00:25:54;4.10;;;1.95;;
66272;SDS011;58450;52.150;4.466;2023-08-24T00:28:21;5.95;;;2.00;;
66272;SDS011;58450;52.150;4.466;2023-08-24T00:30:50;4.25;;;2.20;;
66272;SDS011;58450;52.150;4.466;2023-08-24T00:33:18;5.50;;;2.08;;
66272;SDS011;58450;52.150;4.466;2023-08-24T00:35:46;3.55;;;1.73;;
66272;SDS011;58450;52.150;4.466;2023-08-24T00:38:13;5.85;;;2.17;;
66272;SDS011;58450;52.150;4.466;2023-08-24T00:40:41;4.35;;;2.33;;
66272;SDS011;58450;52.150;4.466;2023-08-24T00:43:09;2.95;;;1.75;;
66272;SDS011;58450;52.150;4.466;2023-08-24T00:45:38;2.75;;;2.00;;
66272;SDS011;58450;52.150;4.466;2023-08-24T00:48:07;3.53;;;1.80;;
66272;SDS011;58450;52.150;4.466;2023-08-24T00:50:35;2.28;;;1.65;;
66272;SDS011;58450;52.150;4.466;2023-08-24T00:53:02;4.78;;;2.13;;
66272;SDS011;58450;52.150;4.466;2023-08-24T00:55:30;4.47;;;1.77;;
66272;SDS011;58450;52.150;4.466;2023-08-24T00:57:58;4.47;;;1.88;;
66272;SDS011;58450;52.150;4.466;2023-08-24T01:00:26;3.50;;;1.75;;
66272;SDS011;58450;52.150;4.466;2023-08-24T01:02:54;2.50;;;1.58;;
66272;SDS011;58450;52.150;4.466;2023-08-24T01:05:23;3.75;;;1.75;;
66272;SDS011;58450;52.150;4.466;2023-08-24T01:07:51;3.10;;;1.83;;
66272;SDS011;58450;52.150;4.466;2023-08-24T01:10:18;5.03;;;1.92;;
66272;SDS011;58450;52.150;4.466;2023-08-24T01:12:50;3.17;;;2.00;;
66272;SDS011;58450;52.150;4.466;2023-08-24T01:15:29;2.70;;;1.80;;
66272;SDS011;58450;52.150;4.466;2023-08-24T01:18:05;3.88;;;1.80;;
66272;SDS011;58450;52.150;4.466;2023-08-24T01:20:42;4.22;;;2.40;;
66272;SDS011;58450;52.150;4.466;2023-08-24T01:23:15;3.17;;;2.10;;
66272;SDS011;58450;52.150;4.466;2023-08-24T01:26:03;6.47;;;2.60;;
66272;SDS011;58450;52.150;4.466;2023-08-24T01:28:36;3.17;;;2.22;;
66272;SDS011;58450;52.150;4.466;2023-08-24T01:31:05;3.40;;;2.08;;
66272;SDS011;58450;52.150;4.466;2023-08-24T01:33:33;4.35;;;2.40;;
66272;SDS011;58450;52.150;4.466;2023-08-24T01:36:01;6.75;;;2.90;;
66272;SDS011;58450;52.150;4.466;2023-08-24T01:38:29;4.88;;;2.75;;
66272;SDS011;58450;52.150;4.466;2023-08-24T01:41:01;5.22;;;3.20;;
66272;SDS011;58450;52.150;4.466;2023-08-24T01:43:41;4.75;;;3.00;;
66272;SDS011;58450;52.150;4.466;2023-08-24T01:46:20;5.65;;;3.30;;
66272;SDS011;58450;52.150;4.466;2023-08-24T01:48:51;4.82;;;3.10;;
66272;SDS011;58450;52.150;4.466;2023-08-24T01:51:21;5.03;;;3.38;;
66272;SDS011;58450;52.150;4.466;2023-08-24T01:53:51;5.70;;;3.10;;
66272;SDS011;58450;52.150;4.466;2023-08-24T01:56:21;5.22;;;3.20;;
66272;SDS011;58450;52.150;4.466;2023-08-24T01:58:49;5.95;;;3.13;;
66272;SDS011;58450;52.150;4.466;2023-08-24T02:01:16;6.25;;;3.05;;
66272;SDS011;58450;52.150;4.466;2023-08-24T02:03:44;5.22;;;3.40;;
66272;SDS011;58450;52.150;4.466;2023-08-24T02:06:11;4.70;;;2.95;;
66272;SDS011;58450;52.150;4.466;2023-08-24T02:08:39;5.03;;;3.35;;
66272;SDS011;58450;52.150;4.466;2023-08-24T02:11:07;5.55;;;3.05;;
66272;SDS011;58450;52.150;4.466;2023-08-24T02:13:36;4.85;;;3.00;;
66272;SDS011;58450;52.150;4.466;2023-08-24T02:16:03;6.75;;;3.38;;
66272;SDS011;58450;52.150;4.466;2023-08-24T02:18:33;6.45;;;3.70;;
66272;SDS011;58450;52.150;4.466;2023-08-24T02:21:06;8.25;;;3.97;;
66272;SDS011;58450;52.150;4.466;2023-08-24T02:23:36;8.38;;;4.40;;
66272;SDS011;58450;52.150;4.466;2023-08-24T02:26:03;7.55;;;3.47;;
66272;SDS011;58450;52.150;4.466;2023-08-24T02:28:32;5.20;;;2.95;;
66272;SDS011;58450;52.150;4.466;2023-08-24T02:31:01;4.80;;;2.75;;
66272;SDS011;58450;52.150;4.466;2023-08-24T02:33:29;4.90;;;2.95;;
66272;SDS011;58450;52.150;4.466;2023-08-24T02:35:58;5.97;;;2.78;;
66272;SDS011;58450;52.150;4.466;2023-08-24T02:38:25;4.32;;;2.80;;
66272;SDS011;58450;52.150;4.466;2023-08-24T02:41:00;4.97;;;2.72;;
66272;SDS011;58450;52.150;4.466;2023-08-24T02:43:29;4.15;;;2.63;;
66272;SDS011;58450;52.150;4.466;2023-08-24T02:45:59;4.60;;;3.15;;
66272;SDS011;58450;52.150;4.466;2023-08-24T02:48:30;5.40;;;2.83;;
66272;SDS011;58450;52.150;4.466;2023-08-24T02:50:58;5.00;;;2.90;;
66272;SDS011;58450;52.150;4.466;2023-08-24T02:53:26;4.72;;;2.80;;
66272;SDS011;58450;52.150;4.466;2023-08-24T02:55:54;3.88;;;2.70;;
66272;SDS011;58450;52.150;4.466;2023-08-24T02:58:22;4.18;;;2.80;;
66272;SDS011;58450;52.150;4.466;2023-08-24T03:00:50;5.80;;;2.83;;
66272;SDS011;58450;52.150;4.466;2023-08-24T03:03:19;5.88;;;2.75;;
66272;SDS011;58450;52.150;4.466;2023-08-24T03:05:53;4.70;;;2.95;;
66272;SDS011;58450;52.150;4.466;2023-08-24T03:08:22;4.10;;;2.80;;
66272;SDS011;58450;52.150;4.466;2023-08-24T03:10:50;4.32;;;3.17;;
66272;SDS011;58450;52.150;4.466;2023-08-24T03:13:18;4.57;;;2.78;;
66272;SDS011;58450;52.150;4.466;2023-08-24T03:15:45;6.65;;;3.47;;
66272;SDS011;58450;52.150;4.466;2023-08-24T03:18:13;5.75;;;3.10;;
66272;SDS011;58450;52.150;4.466;2023-08-24T03:20:45;4.60;;;2.70;;
66272;SDS011;58450;52.150;4.466;2023-08-24T03:23:13;4.63;;;2.63;;
66272;SDS011;58450;52.150;4.466;2023-08-24T03:25:41;4.20;;;2.85;;
66272;SDS011;58450;52.150;4.466;2023-08-24T03:28:10;5.38;;;2.78;;
66272;SDS011;58450;52.150;4.466;2023-08-24T03:30:38;4.53;;;2.97;;
66272;SDS011;58450;52.150;4.466;2023-08-24T03:33:12;4.65;;;2.67;;
66272;SDS011;58450;52.150;4.466;2023-08-24T03:35:39;6.30;;;3.30;;
66272;SDS011;58450;52.150;4.466;2023-08-24T03:38:08;5.22;;;2.90;;
66272;SDS011;58450;52.150;4.466;2023-08-24T03:40:36;5.18;;;2.90;;
66272;SDS011;58450;52.150;4.466;2023-08-24T03:43:04;5.38;;;2.80;;
66272;SDS011;58450;52.150;4.466;2023-08-24T03:45:32;5.40;;;3.03;;
66272;SDS011;58450;52.150;4.466;2023-08-24T03:48:00;7.53;;;3.40;;
66272;SDS011;58450;52.150;4.466;2023-08-24T03:50:27;5.32;;;3.00;;
66272;SDS011;58450;52.150;4.466;2023-08-24T03:52:55;5.55;;;2.85;;
66272;SDS011;58450;52.150;4.466;2023-08-24T03:55:24;5.05;;;3.35;;
66272;SDS011;58450;52.150;4.466;2023-08-24T03:57:52;5.07;;;3.00;;
66272;SDS011;58450;52.150;4.466;2023-08-24T04:00:20;4.80;;;2.80;;
66272;SDS011;58450;52.150;4.466;2023-08-24T04:02:48;4.13;;;2.75;;
66272;SDS011;58450;52.150;4.466;2023-08-24T04:05:15;6.57;;;3.50;;
66272;SDS011;58450;52.150;4.466;2023-08-24T04:07:43;6.07;;;3.05;;
66272;SDS011;58450;52.150;4.466;2023-08-24T04:10:11;5.07;;;3.22;;
66272;SDS011;58450;52.150;4.466;2023-08-24T04:12:39;5.43;;;3.10;;
66272;SDS011;58450;52.150;4.466;2023-08-24T04:15:08;4.95;;;3.22;;
66272;SDS011;58450;52.150;4.466;2023-08-24T04:17:37;5.03;;;3.10;;
66272;SDS011;58450;52.150;4.466;2023-08-24T04:20:05;5.18;;;3.45;;
66272;SDS011;58450;52.150;4.466;2023-08-24T04:22:34;4.65;;;3.40;;
66272;SDS011;58450;52.150;4.466;2023-08-24T04:25:02;5.90;;;3.60;;
66272;SDS011;58450;52.150;4.466;2023-08-24T04:27:31;4.57;;;3.17;;
66272;SDS011;58450;52.150;4.466;2023-08-24T04:30:00;4.60;;;3.13;;
66272;SDS011;58450;52.150;4.466;2023-08-24T04:32:29;5.45;;;3.50;;
66272;SDS011;58450;52.150;4.466;2023-08-24T04:34:58;4.28;;;3.00;;
66272;SDS011;58450;52.150;4.466;2023-08-24T04:37:26;5.35;;;3.17;;
66272;SDS011;58450;52.150;4.466;2023-08-24T04:39:53;5.25;;;3.13;;
66272;SDS011;58450;52.150;4.466;2023-08-24T04:42:21;5.85;;;3.28;;
66272;SDS011;58450;52.150;4.466;2023-08-24T04:44:50;4.50;;;3.45;;
66272;SDS011;58450;52.150;4.466;2023-08-24T04:47:19;5.32;;;3.33;;
66272;SDS011;58450;52.150;4.466;2023-08-24T04:49:46;5.32;;;3.30;;
66272;SDS011;58450;52.150;4.466;2023-08-24T04:52:14;6.88;;;3.47;;
66272;SDS011;58450;52.150;4.466;2023-08-24T04:54:41;6.18;;;3.30;;
66272;SDS011;58450;52.150;4.466;2023-08-24T04:57:09;4.93;;;3.67;;
66272;SDS011;58450;52.150;4.466;2023-08-24T04:59:37;5.80;;;3.70;;
66272;SDS011;58450;52.150;4.466;2023-08-24T05:02:04;5.80;;;3.58;;
66272;SDS011;58450;52.150;4.466;2023-08-24T05:04:33;7.07;;;4.45;;
66272;SDS011;58450;52.150;4.466;2023-08-24T05:07:01;5.70;;;3.58;;
66272;SDS011;58450;52.150;4.466;2023-08-24T05:09:28;8.68;;;3.90;;
66272;SDS011;58450;52.150;4.466;2023-08-24T05:11:56;5.88;;;3.83;;
66272;SDS011;58450;52.150;4.466;2023-08-24T05:14:23;7.13;;;3.97;;
66272;SDS011;58450;52.150;4.466;2023-08-24T05:16:51;6.32;;;3.38;;
66272;SDS011;58450;52.150;4.466;2023-08-24T05:19:18;5.50;;;3.78;;
66272;SDS011;58450;52.150;4.466;2023-08-24T05:21:47;7.32;;;4.22;;
66272;SDS011;58450;52.150;4.466;2023-08-24T05:24:15;6.05;;;3.80;;
66272;SDS011;58450;52.150;4.466;2023-08-24T05:26:42;5.43;;;3.70;;
66272;SDS011;58450;52.150;4.466;2023-08-24T05:29:10;6.32;;;3.65;;
66272;SDS011;58450;52.150;4.466;2023-08-24T05:31:38;4.90;;;3.30;;
66272;SDS011;58450;52.150;4.466;2023-08-24T05:34:05;5.30;;;3.45;;
66272;SDS011;58450;52.150;4.466;2023-08-24T05:36:33;4.95;;;3.30;;
66272;SDS011;58450;52.150;4.466;2023-08-24T05:39:01;5.07;;;3.25;;
66272;SDS011;58450;52.150;4.466;2023-08-24T05:41:29;6.18;;;3.50;;
66272;SDS011;58450;52.150;4.466;2023-08-24T05:43:57;6.65;;;3.97;;
66272;SDS011;58450;52.150;4.466;2023-08-24T05:46:25;5.13;;;3.30;;
66272;SDS011;58450;52.150;4.466;2023-08-24T05:48:52;6.65;;;3.38;;
66272;SDS011;58450;52.150;4.466;2023-08-24T05:51:20;6.03;;;3.50;;
66272;SDS011;58450;52.150;4.466;2023-08-24T05:53:47;6.05;;;3.25;;
66272;SDS011;58450;52.150;4.466;2023-08-24T05:56:16;4.78;;;3.40;;
66272;SDS011;58450;52.150;4.466;2023-08-24T05:58:44;6.63;;;3.22;;
66272;SDS011;58450;52.150;4.466;2023-08-24T06:01:11;6.82;;;3.70;;
66272;SDS011;58450;52.150;4.466;2023-08-24T06:03:39;5.75;;;3.58;;
66272;SDS011;58450;52.150;4.466;2023-08-24T06:06:06;6.35;;;3.85;;
66272;SDS011;58450;52.150;4.466;2023-08-24T06:08:35;6.72;;;3.97;;
66272;SDS011;58450;52.150;4.466;2023-08-24T06:11:03;9.60;;;3.80;;
66272;SDS011;58450;52.150;4.466;2023-08-24T06:13:32;5.97;;;3.40;;
66272;SDS011;58450;52.150;4.466;2023-08-24T06:16:00;5.88;;;3.67;;
66272;SDS011;58450;52.150;4.466;2023-08-24T06:18:28;5.93;;;3.60;;
66272;SDS011;58450;52.150;4.466;2023-08-24T06:20:56;6.32;;;3.78;;
66272;SDS011;58450;52.150;4.466;2023-08-24T06:23:23;6.75;;;3.63;;
66272;SDS011;58450;52.150;4.466;2023-08-24T06:25:51;7.15;;;4.05;;
66272;SDS011;58450;52.150;4.466;2023-08-24T06:28:19;6.05;;;3.45;;
66272;SDS011;58450;52.150;4.466;2023-08-24T06:30:47;5.03;;;3.22;;
66272;SDS011;58450;52.150;4.466;2023-08-24T06:33:16;6.78;;;3.20;;
66272;SDS011;58450;52.150;4.466;2023-08-24T06:35:44;5.05;;;3.25;;
66272;SDS011;58450;52.150;4.466;2023-08-24T06:38:12;5.10;;;3.22;;
66272;SDS011;58450;52.150;4.466;2023-08-24T06:40:40;5.65;;;3.30;;
66272;SDS011;58450;52.150;4.466;2023-08-24T06:43:08;6.68;;;3.35;;
66272;SDS011;58450;52.150;4.466;2023-08-24T06:45:35;6.35;;;3.42;;
66272;SDS011;58450;52.150;4.466;2023-08-24T06:48:04;5.57;;;3.10;;
66272;SDS011;58450;52.150;4.466;2023-08-24T06:50:33;6.82;;;3.25;;
66272;SDS011;58450;52.150;4.466;2023-08-24T06:53:02;6.20;;;3.15;;
66272;SDS011;58450;52.150;4.466;2023-08-24T06:55:30;5.43;;;3.08;;
66272;SDS011;58450;52.150;4.466;2023-08-24T06:57:58;4.07;;;2.88;;
66272;SDS011;58450;52.150;4.466;2023-08-24T07:00:25;5.10;;;3.00;;
66272;SDS011;58450;52.150;4.466;2023-08-24T07:02:53;6.32;;;3.25;;
66272;SDS011;58450;52.150;4.466;2023-08-24T07:05:22;4.80;;;2.97;;
66272;SDS011;58450;52.150;4.466;2023-08-24T07:07:50;6.05;;;3.30;;
66272;SDS011;58450;52.150;4.466;2023-08-24T07:10:18;7.20;;;3.90;;
66272;SDS011;58450;52.150;4.466;2023-08-24T07:12:46;6.57;;;3.13;;
66272;SDS011;58450;52.150;4.466;2023-08-24T07:15:13;6.85;;;3.20;;
66272;SDS011;58450;52.150;4.466;2023-08-24T07:17:41;6.90;;;3.58;;
66272;SDS011;58450;52.150;4.466;2023-08-24T07:20:09;5.43;;;2.97;;
66272;SDS011;58450;52.150;4.466;2023-08-24T07:22:40;7.93;;;3.42;;
66272;SDS011;58450;52.150;4.466;2023-08-24T07:25:08;5.60;;;3.95;;
66272;SDS011;58450;52.150;4.466;2023-08-24T07:27:37;7.57;;;4.22;;
66272;SDS011;58450;52.150;4.466;2023-08-24T07:30:05;7.13;;;4.07;;
66272;SDS011;58450;52.150;4.466;2023-08-24T07:32:35;9.90;;;3.92;;
66272;SDS011;58450;52.150;4.466;2023-08-24T07:35:03;7.57;;;4.28;;
66272;SDS011;58450;52.150;4.466;2023-08-24T07:37:32;5.68;;;3.58;;
66272;SDS011;58450;52.150;4.466;2023-08-24T07:40:01;8.10;;;3.97;;
66272;SDS011;58450;52.150;4.466;2023-08-24T07:42:35;7.65;;;3.90;;
66272;SDS011;58450;52.150;4.466;2023-08-24T07:45:11;7.97;;;4.38;;
66272;SDS011;58450;52.150;4.466;2023-08-24T07:47:39;6.85;;;3.45;;
66272;SDS011;58450;52.150;4.466;2023-08-24T07:50:08;10.20;;;5.60;;
66272;SDS011;58450;52.150;4.466;2023-08-24T07:52:37;7.85;;;4.30;;
66272;SDS011;58450;52.150;4.466;2023-08-24T07:55:07;8.02;;;4.57;;
66272;SDS011;58450;52.150;4.466;2023-08-24T07:57:35;6.80;;;4.25;;
66272;SDS011;58450;52.150;4.466;2023-08-24T08:00:05;8.20;;;4.47;;
66272;SDS011;58450;52.150;4.466;2023-08-24T08:02:35;8.48;;;5.00;;
66272;SDS011;58450;52.150;4.466;2023-08-24T08:05:03;7.10;;;4.43;;
66272;SDS011;58450;52.150;4.466;2023-08-24T08:07:33;8.20;;;5.25;;
66272;SDS011;58450;52.150;4.466;2023-08-24T08:10:01;7.78;;;4.90;;
66272;SDS011;58450;52.150;4.466;2023-08-24T08:12:30;9.98;;;5.70;;
66272;SDS011;58450;52.150;4.466;2023-08-24T08:14:58;11.13;;;5.40;;
66272;SDS011;58450;52.150;4.466;2023-08-24T08:17:26;7.78;;;4.65;;
66272;SDS011;58450;52.150;4.466;2023-08-24T08:19:56;8.95;;;5.90;;
66272;SDS011;58450;52.150;4.466;2023-08-24T08:22:24;8.80;;;4.68;;
66272;SDS011;58450;52.150;4.466;2023-08-24T08:24:52;5.80;;;4.30;;
66272;SDS011;58450;52.150;4.466;2023-08-24T08:27:22;7.55;;;3.90;;
66272;SDS011;58450;52.150;4.466;2023-08-24T08:29:51;8.43;;;4.63;;
66272;SDS011;58450;52.150;4.466;2023-08-24T08:32:18;8.65;;;5.30;;
66272;SDS011;58450;52.150;4.466;2023-08-24T08:34:46;7.82;;;4.47;;
66272;SDS011;58450;52.150;4.466;2023-08-24T08:37:13;7.25;;;4.55;;
66272;SDS011;58450;52.150;4.466;2023-08-24T08:39:41;7.30;;;4.88;;
66272;SDS011;58450;52.150;4.466;2023-08-24T08:42:11;5.90;;;4.18;;
66272;SDS011;58450;52.150;4.466;2023-08-24T08:44:39;8.82;;;4.60;;
66272;SDS011;58450;52.150;4.466;2023-08-24T08:47:11;6.55;;;3.88;;
66272;SDS011;58450;52.150;4.466;2023-08-24T08:49:40;7.82;;;4.40;;
66272;SDS011;58450;52.150;4.466;2023-08-24T08:52:10;8.18;;;4.82;;
66272;SDS011;58450;52.150;4.466;2023-08-24T08:54:39;6.68;;;3.63;;
66272;SDS011;58450;52.150;4.466;2023-08-24T08:57:06;6.80;;;4.13;;
66272;SDS011;58450;52.150;4.466;2023-08-24T08:59:34;8.38;;;4.35;;
66272;SDS011;58450;52.150;4.466;2023-08-24T09:02:03;9.50;;;4.68;;
66272;SDS011;58450;52.150;4.466;2023-08-24T09:04:34;6.50;;;4.00;;
66272;SDS011;58450;52.150;4.466;2023-08-24T09:07:02;8.98;;;4.90;;
66272;SDS011;58450;52.150;4.466;2023-08-24T09:09:36;7.07;;;4.25;;
66272;SDS011;58450;52.150;4.466;2023-08-24T09:12:05;6.75;;;4.10;;
66272;SDS011;58450;52.150;4.466;2023-08-24T09:14:34;5.95;;;3.83;;
66272;SDS011;58450;52.150;4.466;2023-08-24T09:17:02;6.90;;;3.50;;
66272;SDS011;58450;52.150;4.466;2023-08-24T09:19:30;7.25;;;4.60;;
66272;SDS011;58450;52.150;4.466;2023-08-24T09:22:04;9.18;;;4.13;;
66272;SDS011;58450;52.150;4.466;2023-08-24T09:24:32;6.90;;;3.92;;
66272;SDS011;58450;52.150;4.466;2023-08-24T09:27:04;6.15;;;4.07;;
66272;SDS011;58450;52.150;4.466;2023-08-24T09:29:43;6.63;;;3.05;;
66272;SDS011;58450;52.150;4.466;2023-08-24T09:32:14;6.70;;;3.70;;
66272;SDS011;58450;52.150;4.466;2023-08-24T09:34:43;7.47;;;3.65;;
66272;SDS011;58450;52.150;4.466;2023-08-24T09:37:13;7.40;;;4.20;;
66272;SDS011;58450;52.150;4.466;2023-08-24T09:39:42;7.53;;;4.07;;
66272;SDS011;58450;52.150;4.466;2023-08-24T09:42:09;6.43;;;3.60;;
66272;SDS011;58450;52.150;4.466;2023-08-24T09:44:37;7.93;;;3.83;;
66272;SDS011;58450;52.150;4.466;2023-08-24T09:47:08;6.88;;;3.90;;
66272;SDS011;58450;52.150;4.466;2023-08-24T09:49:37;6.17;;;3.37;;
66272;SDS011;58450;52.150;4.466;2023-08-24T09:52:08;6.90;;;4.00;;
66272;SDS011;58450;52.150;4.466;2023-08-24T09:54:36;8.38;;;4.13;;
66272;SDS011;58450;52.150;4.466;2023-08-24T09:57:07;6.20;;;3.63;;
66272;SDS011;58450;52.150;4.466;2023-08-24T09:59:37;6.03;;;3.47;;
66272;SDS011;58450;52.150;4.466;2023-08-24T10:02:14;7.93;;;3.83;;
66272;SDS011;58450;52.150;4.466;2023-08-24T10:04:50;5.70;;;3.42;;
66272;SDS011;58450;52.150;4.466;2023-08-24T10:07:23;7.25;;;3.50;;
66272;SDS011;58450;52.150;4.466;2023-08-24T10:09:58;7.97;;;3.38;;
66272;SDS011;58450;52.150;4.466;2023-08-24T10:12:31;6.40;;;3.70;;
66272;SDS011;58450;52.150;4.466;2023-08-24T10:15:13;6.90;;;3.88;;
66272;SDS011;58450;52.150;4.466;2023-08-24T10:17:42;5.43;;;3.50;;
66272;SDS011;58450;52.150;4.466;2023-08-24T10:20:11;6.15;;;3.50;;
66272;SDS011;58450;52.150;4.466;2023-08-24T10:22:40;6.82;;;4.40;;
66272;SDS011;58450;52.150;4.466;2023-08-24T10:25:09;8.63;;;4.20;;
66272;SDS011;58450;52.150;4.466;2023-08-24T10:27:37;8.48;;;4.22;;
66272;SDS011;58450;52.150;4.466;2023-08-24T10:30:09;5.63;;;3.63;;
66272;SDS011;58450;52.150;4.466;2023-08-24T10:32:39;8.85;;;5.32;;
66272;SDS011;58450;52.150;4.466;2023-08-24T10:35:09;12.15;;;7.82;;
66272;SDS011;58450;52.150;4.466;2023-08-24T10:37:36;12.90;;;7.80;;
66272;SDS011;58450;52.150;4.466;2023-08-24T10:40:06;11.25;;;6.72;;
66272;SDS011;58450;52.150;4.466;2023-08-24T10:42:43;12.25;;;5.25;;
66272;SDS011;58450;52.150;4.466;2023-08-24T10:45:12;7.55;;;3.78;;
66272;SDS011;58450;52.150;4.466;2023-08-24T10:47:44;8.13;;;3.97;;
66272;SDS011;58450;52.150;4.466;2023-08-24T10:50:13;9.15;;;5.30;;
66272;SDS011;58450;52.150;4.466;2023-08-24T10:52:43;10.25;;;5.60;;
66272;SDS011;58450;52.150;4.466;2023-08-24T10:55:24;7.45;;;4.15;;
66272;SDS011;58450;52.150;4.466;2023-08-24T10:57:55;6.28;;;4.13;;
66272;SDS011;58450;52.150;4.466;2023-08-24T11:00:27;6.45;;;3.60;;
66272;SDS011;58450;52.150;4.466;2023-08-24T11:02:57;5.80;;;3.38;;
66272;SDS011;58450;52.150;4.466;2023-08-24T11:05:26;5.97;;;3.22;;
66272;SDS011;58450;52.150;4.466;2023-08-24T11:07:55;6.70;;;3.35;;
66272;SDS011;58450;52.150;4.466;2023-08-24T11:10:31;4.75;;;2.90;;
66272;SDS011;58450;52.150;4.466;2023-08-24T11:13:13;7.03;;;2.85;;
66272;SDS011;58450;52.150;4.466;2023-08-24T11:15:43;5.22;;;2.88;;
66272;SDS011;58450;52.150;4.466;2023-08-24T11:18:15;6.97;;;3.50;;
66272;SDS011;58450;52.150;4.466;2023-08-24T11:20:49;5.97;;;3.20;;
66272;SDS011;58450;52.150;4.466;2023-08-24T11:23:19;5.65;;;3.30;;
66272;SDS011;58450;52.150;4.466;2023-08-24T11:25:50;5.88;;;3.22;;
66272;SDS011;58450;52.150;4.466;2023-08-24T11:28:22;5.05;;;2.97;;
66272;SDS011;58450;52.150;4.466;2023-08-24T11:30:51;7.97;;;3.70;;
66272;SDS011;58450;52.150;4.466;2023-08-24T11:33:26;6.13;;;3.35;;
66272;SDS011;58450;52.150;4.466;2023-08-24T11:35:56;5.53;;;3.60;;
66272;SDS011;58450;52.150;4.466;2023-08-24T11:38:24;5.85;;;3.55;;
66272;SDS011;58450;52.150;4.466;2023-08-24T11:40:53;5.68;;;3.33;;
66272;SDS011;58450;52.150;4.466;2023-08-24T11:43:23;6.50;;;3.75;;
66272;SDS011;58450;52.150;4.466;2023-08-24T11:45:53;5.65;;;3.47;;
66272;SDS011;58450;52.150;4.466;2023-08-24T11:48:23;5.72;;;3.22;;
66272;SDS011;58450;52.150;4.466;2023-08-24T11:50:55;5.90;;;3.22;;
66272;SDS011;58450;52.150;4.466;2023-08-24T11:53:22;5.53;;;3.38;;
66272;SDS011;58450;52.150;4.466;2023-08-24T11:55:53;5.78;;;3.63;;
66272;SDS011;58450;52.150;4.466;2023-08-24T11:58:21;6.15;;;3.45;;
66272;SDS011;58450;52.150;4.466;2023-08-24T12:00:48;7.70;;;3.55;;
66272;SDS011;58450;52.150;4.466;2023-08-24T12:03:16;7.43;;;3.60;;
66272;SDS011;58450;52.150;4.466;2023-08-24T12:05:45;6.13;;;3.55;;
66272;SDS011;58450;52.150;4.466;2023-08-24T12:08:13;7.10;;;3.72;;
66272;SDS011;58450;52.150;4.466;2023-08-24T12:10:43;5.95;;;3.17;;
66272;SDS011;58450;52.150;4.466;2023-08-24T12:13:12;7.05;;;3.45;;
66272;SDS011;58450;52.150;4.466;2023-08-24T12:15:40;6.47;;;3.63;;
66272;SDS011;58450;52.150;4.466;2023-08-24T12:18:08;7.10;;;3.47;;
66272;SDS011;58450;52.150;4.466;2023-08-24T12:20:38;5.05;;;3.33;;
66272;SDS011;58450;52.150;4.466;2023-08-24T12:23:07;5.43;;;3.13;;
66272;SDS011;58450;52.150;4.466;2023-08-24T12:25:36;5.53;;;3.20;;
66272;SDS011;58450;52.150;4.466;2023-08-24T12:28:09;6.50;;;3.42;;
66272;SDS011;58450;52.150;4.466;2023-08-24T12:30:50;5.57;;;3.50;;
66272;SDS011;58450;52.150;4.466;2023-08-24T12:33:22;5.22;;;3.00;;
66272;SDS011;58450;52.150;4.466;2023-08-24T12:35:51;5.57;;;3.40;;
66272;SDS011;58450;52.150;4.466;2023-08-24T12:38:21;5.63;;;3.10;;
66272;SDS011;58450;52.150;4.466;2023-08-24T12:40:49;6.55;;;3.33;;
66272;SDS011;58450;52.150;4.466;2023-08-24T12:43:17;6.80;;;3.63;;
66272;SDS011;58450;52.150;4.466;2023-08-24T12:45:45;6.28;;;3.60;;
66272;SDS011;58450;52.150;4.466;2023-08-24T12:48:14;7.45;;;3.58;;
66272;SDS011;58450;52.150;4.466;2023-08-24T12:50:42;6.40;;;3.40;;
66272;SDS011;58450;52.150;4.466;2023-08-24T12:53:10;6.93;;;3.38;;
66272;SDS011;58450;52.150;4.466;2023-08-24T12:55:38;6.32;;;3.30;;
66272;SDS011;58450;52.150;4.466;2023-08-24T12:58:06;7.78;;;3.58;;
66272;SDS011;58450;52.150;4.466;2023-08-24T13:00:34;4.63;;;2.90;;
66272;SDS011;58450;52.150;4.466;2023-08-24T13:03:02;6.25;;;3.10;;
66272;SDS011;58450;52.150;4.466;2023-08-24T13:05:32;5.82;;;3.05;;
66272;SDS011;58450;52.150;4.466;2023-08-24T13:07:59;5.47;;;3.15;;
66272;SDS011;58450;52.150;4.466;2023-08-24T13:10:27;5.10;;;3.20;;
66272;SDS011;58450;52.150;4.466;2023-08-24T13:12:54;4.20;;;2.53;;
66272;SDS011;58450;52.150;4.466;2023-08-24T13:15:22;7.00;;;3.60;;
66272;SDS011;58450;52.150;4.466;2023-08-24T13:17:50;5.05;;;3.00;;
66272;SDS011;58450;52.150;4.466;2023-08-24T13:20:17;6.22;;;3.75;;
66272;SDS011;58450;52.150;4.466;2023-08-24T13:22:46;5.55;;;2.75;;
66272;SDS011;58450;52.150;4.466;2023-08-24T13:25:14;5.68;;;2.95;;
66272;SDS011;58450;52.150;4.466;2023-08-24T13:27:42;4.82;;;3.17;;
66272;SDS011;58450;52.150;4.466;2023-08-24T13:30:09;6.25;;;3.28;;
66272;SDS011;58450;52.150;4.466;2023-08-24T13:32:38;7.43;;;3.88;;
66272;SDS011;58450;52.150;4.466;2023-08-24T13:35:06;7.00;;;3.70;;
66272;SDS011;58450;52.150;4.466;2023-08-24T13:37:35;6.25;;;4.03;;
66272;SDS011;58450;52.150;4.466;2023-08-24T13:40:04;6.88;;;3.80;;
66272;SDS011;58450;52.150;4.466;2023-08-24T13:42:34;5.82;;;3.70;;
66272;SDS011;58450;52.150;4.466;2023-08-24T13:45:02;6.65;;;3.28;;
66272;SDS011;58450;52.150;4.466;2023-08-24T13:47:30;5.95;;;3.13;;
66272;SDS011;58450;52.150;4.466;2023-08-24T13:49:58;7.25;;;4.15;;
66272;SDS011;58450;52.150;4.466;2023-08-24T13:52:26;6.15;;;3.13;;
66272;SDS011;58450;52.150;4.466;2023-08-24T13:54:54;5.10;;;3.40;;
66272;SDS011;58450;52.150;4.466;2023-08-24T13:57:22;5.35;;;3.30;;
66272;SDS011;58450;52.150;4.466;2023-08-24T13:59:50;7.03;;;3.35;;
66272;SDS011;58450;52.150;4.466;2023-08-24T14:02:18;8.35;;;4.40;;
66272;SDS011;58450;52.150;4.466;2023-08-24T14:04:45;6.43;;;4.40;;
66272;SDS011;58450;52.150;4.466;2023-08-24T14:07:13;5.72;;;3.60;;
66272;SDS011;58450;52.150;4.466;2023-08-24T14:09:41;4.47;;;2.58;;
66272;SDS011;58450;52.150;4.466;2023-08-24T14:12:08;5.80;;;3.85;;
66272;SDS011;58450;52.150;4.466;2023-08-24T14:14:37;8.07;;;4.60;;
66272;SDS011;58450;52.150;4.466;2023-08-24T14:17:05;5.03;;;3.22;;
66272;SDS011;58450;52.150;4.466;2023-08-24T14:19:32;5.95;;;3.47;;
66272;SDS011;58450;52.150;4.466;2023-08-24T14:22:00;5.53;;;3.67;;
66272;SDS011;58450;52.150;4.466;2023-08-24T14:24:27;7.53;;;4.45;;
66272;SDS011;58450;52.150;4.466;2023-08-24T14:26:55;6.78;;;4.13;;
66272;SDS011;58450;52.150;4.466;2023-08-24T14:29:23;10.55;;;4.28;;
66272;SDS011;58450;52.150;4.466;2023-08-24T14:31:52;8.02;;;4.38;;
66272;SDS011;58450;52.150;4.466;2023-08-24T14:34:19;6.85;;;4.60;;
66272;SDS011;58450;52.150;4.466;2023-08-24T14:36:47;7.60;;;4.45;;
66272;SDS011;58450;52.150;4.466;2023-08-24T14:39:15;7.30;;;4.75;;
66272;SDS011;58450;52.150;4.466;2023-08-24T14:41:42;6.22;;;3.75;;
66272;SDS011;58450;52.150;4.466;2023-08-24T14:44:10;5.38;;;3.65;;
66272;SDS011;58450;52.150;4.466;2023-08-24T14:46:37;8.35;;;5.00;;
66272;SDS011;58450;52.150;4.466;2023-08-24T14:49:07;8.43;;;4.65;;
66272;SDS011;58450;52.150;4.466;2023-08-24T14:51:34;6.13;;;3.85;;
66272;SDS011;58450;52.150;4.466;2023-08-24T14:54:02;6.20;;;3.88;;
66272;SDS011;58450;52.150;4.466;2023-08-24T14:56:30;7.05;;;4.18;;
66272;SDS011;58450;52.150;4.466;2023-08-24T14:58:57;6.45;;;3.88;;